Flight Track Log - Related Links

Times and Time Zones

All times are in EDT time to prevent confusion due to time zone crossing. See the LXJ437 flight status page for this flight to view local times or setup timezone preferences in your user account.

Time Position Orientation Groundspeed Altitude Reporting Facility
EDT Latitude Longitude Course Direction KTS MPH feet Rate Location/Type
Wed 10:17:15 AM 30.1133 -97.6994 270° West 205 236 6,200  Level Houston Center
Wed 10:18:17 AM 30.1478 -97.7669 301° West 237 273 9,100 2,710 Climbing Houston Center
Wed 10:19:19 AM 30.1861 -97.8739 293° West 314 361 11,800 1,452 Climbing Houston Center
Wed 10:20:21 AM 30.2097 -97.9847 284° West 357 411 12,100 1,935 Climbing Houston Center
Wed 10:21:00 AM 30.4090 -97.8745 282° West  Level FlightAware Approximate
Wed 10:21:23 AM 30.2358 -98.1108 284° West 374 430 15,800  Level Houston Center
Wed 10:22:00 AM 30.4167 -97.9988 270° West  Level FlightAware Approximate
Wed 10:22:25 AM 30.2628 -98.2278 285° West 376 433 19,700  Level Houston Center
Wed 10:23:27 AM 30.2906 -98.3558 284° West 380 437 23,100 2,806 Climbing Houston Center
Wed 10:24:29 AM 30.3181 -98.4789 285° West 403 464 25,500 2,371 Climbing Houston Center
Wed 10:25:31 AM 30.3444 -98.6081 283° West 407 468 28,000 2,226 Climbing Houston Center
Wed 10:26:33 AM 30.3731 -98.7419 284° West 422 486 30,100 1,984 Climbing Houston Center
Wed 10:27:35 AM 30.3981 -98.8747 282° West 415 478 32,100 1,694 Climbing Houston Center
Wed 10:28:37 AM 30.4264 -99.0122 283° West 430 495 33,600 1,597 Climbing Houston Center
Wed 10:29:39 AM 30.4558 -99.1500 284° West 431 496 35,400 1,839 Climbing Houston Center
Wed 10:30:41 AM 30.4878 -99.3075 283° West 415 478 37,400 1,694 Climbing Houston Center
Wed 10:31:43 AM 30.5156 -99.4383 284° West 411 473 38,900 1,210 Climbing Houston Center
Wed 10:32:45 AM 30.5419 -99.5700 283° West 412 474 39,900 532 Climbing Houston Center
Wed 10:33:47 AM 30.5703 -99.7047 284° West 422 486 40,000 48 Climbing Houston Center
Wed 10:34:49 AM 30.6036 -99.8381 286° West 422 486 40,000  Level Houston Center
Wed 10:35:51 AM 30.6517 -99.9606 295° West 411 473 40,000  Level Houston Center
Wed 10:36:53 AM 30.7033 -100.0953 294° West 406 467 40,000  Level Houston Center
Wed 10:37:55 AM 30.7528 -100.2158 296° West 409 471 40,000  Level Houston Center
Wed 10:38:57 AM 30.7983 -100.3383 293° West 410 472 40,000  Level Houston Center
Wed 10:39:59 AM 30.8475 -100.4586 295° West 410 472 40,000  Level Houston Center
Wed 10:41:01 AM 30.8919 -100.5800 293° West 404 465 40,000  Level Houston Center
Wed 10:42:03 AM 30.9453 -100.7250 293° West 398 458 40,000  Level Houston Center
Wed 10:43:05 AM 30.9961 -100.8442 296° West 407 468 40,000  Level Houston Center
Wed 10:44:07 AM 31.0431 -100.9644 295° West 407 468 40,000  Level Houston Center
Wed 10:45:10 AM 31.1033 -101.0739 303° West 399 459 40,000  Level Houston Center
Wed 10:46:12 AM 31.1878 -101.1617 318° Northwest 401 461 40,000  Level Houston Center
Wed 10:47:14 AM 31.2803 -101.2714 315° West 396 456 40,000  Level Houston Center
Wed 10:48:16 AM 31.3606 -101.3622 316° Northwest 399 459 40,000  Level Houston Center
Wed 10:49:18 AM 31.4417 -101.4536 316° Northwest 402 463 40,000  Level Houston Center
Wed 10:50:20 AM 31.5236 -101.5456 316° Northwest 405 466 40,000  Level Houston Center
Wed 10:51:22 AM 31.6042 -101.6372 316° Northwest 407 468 40,000  Level Houston Center
Wed 10:52:24 AM 31.7008 -101.7489 316° Northwest 408 470 40,000  Level Houston Center
Wed 10:53:26 AM 31.7800 -101.8408 315° West 407 468 40,000  Level Houston Center
Wed 10:54:36 AM 31.8786 -101.9514 316° Northwest 399 459 40,000  Level Fort Worth Center
Wed 10:55:36 AM 31.9586 -102.0483 314° West 399 459 40,000  Level Fort Worth Center
Wed 10:56:37 AM 32.0389 -102.1381 317° Northwest 399 459 40,000  Level Fort Worth Center
Wed 10:57:36 AM 32.1186 -102.2356 314° West 399 459 40,000  Level Fort Worth Center
Wed 10:58:36 AM 32.1844 -102.3175 314° West 383 441 40,000  Level Fort Worth Center
Wed 10:59:37 AM 32.2681 -102.4178 315° West 388 447 40,000  Level Fort Worth Center
Wed 11:00:36 AM 32.3475 -102.5156 314° West 394 453 40,000  Level Fort Worth Center
Wed 11:01:36 AM 32.4314 -102.6114 316° Northwest 405 466 40,000  Level Fort Worth Center
Wed 11:02:37 AM 32.5108 -102.7047 315° West 405 466 40,000  Level Fort Worth Center
Wed 11:03:36 AM 32.5925 -102.7958 317° Northwest 405 466 40,000  Level Fort Worth Center
Wed 11:04:36 AM 32.6742 -102.8894 316° Northwest 405 466 40,000  Level Fort Worth Center
Wed 11:05:37 AM 32.7533 -102.9856 314° West 405 466 40,000  Level Fort Worth Center
Wed 11:06:36 AM 32.8367 -103.0822 316° Northwest 405 466 40,000  Level Fort Worth Center
Wed 11:07:36 AM 32.9197 -103.1817 315° West 415 478 40,000  Level Fort Worth Center
Wed 11:09:31 AM 33.0647 -103.3578 315° West 421 484 40,000  Level Albuquerque Center
Wed 11:10:33 AM 33.1467 -103.4597 314° West 425 489 40,000  Level Albuquerque Center
Wed 11:11:35 AM 33.2297 -103.5592 315° West 422 486 40,000  Level Albuquerque Center
Wed 11:12:37 AM 33.3272 -103.6808 314° West 423 487 40,000  Level Albuquerque Center
Wed 11:13:39 AM 33.4169 -103.7794 317° Northwest 425 489 40,000  Level Albuquerque Center
Wed 11:14:41 AM 33.5022 -103.8842 314° West 411 473 40,000  Level Albuquerque Center
Wed 11:15:43 AM 33.5825 -103.9831 314° West 414 476 40,000  Level Albuquerque Center
Wed 11:16:45 AM 33.6622 -104.0819 314° West 414 476 40,000  Level Albuquerque Center
Wed 11:17:47 AM 33.7469 -104.1864 314° West 409 471 40,000  Level Albuquerque Center
Wed 11:18:49 AM 33.8258 -104.2839 314° West 409 471 40,000  Level Albuquerque Center
Wed 11:19:51 AM 33.9103 -104.3892 314° West 408 470 40,000  Level Albuquerque Center
Wed 11:20:53 AM 33.9892 -104.4872 314° West 410 472 40,000  Level Albuquerque Center
Wed 11:21:55 AM 34.0656 -104.5842 314° West 412 474 40,000  Level Albuquerque Center
Wed 11:22:57 AM 34.1442 -104.6800 315° West 402 463 40,000  Level Albuquerque Center
Wed 11:23:58 AM 34.2236 -104.7797 314° West 404 465 40,000  Level Albuquerque Center
Wed 11:25:00 AM 34.3175 -104.8967 314° West 410 472 40,000  Level Albuquerque Center
Wed 11:26:02 AM 34.3958 -104.9953 314° West 406 467 40,000  Level Albuquerque Center
Wed 11:27:04 AM 34.4739 -105.0936 314° West 402 463 40,000  Level Albuquerque Center
Wed 11:28:06 AM 34.5542 -105.1944 314° West 406 467 40,000  Level Albuquerque Center
Wed 11:29:08 AM 34.6233 -105.3014 308° West 404 465 40,000  Level Albuquerque Center
Wed 11:30:10 AM 34.6697 -105.4203 295° West 389 448 40,000  Level Albuquerque Center
Wed 11:31:12 AM 34.7197 -105.5411 297° West 392 451 40,000  Level Albuquerque Center
Wed 11:32:14 AM 34.7697 -105.6611 297° West 393 452 40,000  Level Albuquerque Center
Wed 11:33:16 AM 34.8189 -105.7819 296° West 394 453 40,000  Level Albuquerque Center
Wed 11:34:18 AM 34.8667 -105.8997 296° West 395 455 40,000  Level Albuquerque Center
Wed 11:35:20 AM 34.9242 -106.0428 296° West 394 453 40,000  Level Albuquerque Center
Wed 11:36:22 AM 34.9728 -106.1644 296° West 397 457 40,000  Level Albuquerque Center
Wed 11:37:23 AM 35.0228 -106.2881 296° West 403 464 40,000  Level Albuquerque Center
Wed 11:38:25 AM 35.0725 -106.4117 296° West 407 468 40,000  Level Albuquerque Center
Wed 11:39:27 AM 35.1267 -106.5497 296° West 407 468 40,000  Level Albuquerque Center
Wed 11:40:29 AM 35.1742 -106.6694 296° West 409 471 40,000  Level Albuquerque Center
Wed 11:41:30 AM 35.2319 -106.8072 297° West 408 470 40,000  Level Albuquerque Center
Wed 11:42:32 AM 35.2753 -106.9289 294° West 407 468 40,000  Level Albuquerque Center
Wed 11:43:34 AM 35.3300 -107.0667 296° West 404 465 40,000  Level Albuquerque Center
Wed 11:44:36 AM 35.3767 -107.1856 296° West 404 465 40,000  Level Albuquerque Center
Wed 11:45:38 AM 35.4303 -107.3250 295° West 405 466 40,000  Level Albuquerque Center
Wed 11:46:39 AM 35.4775 -107.4431 296° West 404 465 40,000  Level Albuquerque Center
Wed 11:47:41 AM 35.5225 -107.5611 295° West 400 460 40,000  Level Albuquerque Center
Wed 11:48:43 AM 35.5747 -107.7011 295° West 402 463 40,000  Level Albuquerque Center
Wed 11:49:45 AM 35.6214 -107.8186 296° West 401 461 40,000  Level Albuquerque Center
Wed 11:50:46 AM 35.6739 -107.9578 295° West 400 460 40,000  Level Albuquerque Center
Wed 11:51:48 AM 35.7189 -108.0764 295° West 400 460 40,000  Level Albuquerque Center
Wed 11:52:50 AM 35.7706 -108.2142 295° West 399 459 40,000  Level Albuquerque Center
Wed 11:53:51 AM 35.8153 -108.3319 295° West 397 457 40,000  Level Albuquerque Center
Wed 11:54:53 AM 35.8594 -108.4508 295° West 397 457 40,000  Level Albuquerque Center
Wed 11:55:55 AM 35.9089 -108.5836 295° West 395 455 40,000  Level Albuquerque Center
Wed 11:56:56 AM 35.9542 -108.7108 294° West 403 464 40,000  Level Albuquerque Center
Wed 11:57:58 AM 35.9992 -108.8344 294° West 399 459 40,000  Level Albuquerque Center
Wed 11:59:00 AM 36.0425 -108.9614 293° West 399 459 40,000  Level Albuquerque Center
Wed 12:00:02 PM 36.0925 -109.0850 297° West 401 461 40,000  Level Albuquerque Center
Wed 12:01:03 PM 36.1478 -109.2383 294° West 401 461 40,000 -229 Level Albuquerque Center
Wed 12:02:13 PM 36.1992 -109.3800 294° West 403 464 39,500 -818 Descending Denver Center
Wed 12:03:15 PM 36.2311 -109.5019 288° West 390 449 38,200 -1,742 Descending Denver Center
Wed 12:04:17 PM 36.2486 -109.6583 278° West 407 468 35,900 -2,032 Descending Denver Center
Wed 12:05:19 PM 36.2611 -109.7964 276° West 418 481 34,000 -2,226 Descending Denver Center
Wed 12:06:21 PM 36.2789 -109.9542 278° West 416 479 31,300 -2,661 Descending Denver Center
Wed 12:07:23 PM 36.3297 -110.0756 297° West 413 475 28,500 -2,081 Descending Denver Center
Wed 12:08:25 PM 36.3858 -110.2025 299° West 415 478 27,000 -823 Descending Denver Center
Wed 12:09:27 PM 36.4306 -110.3017 299° West 414 476 26,800 -1,258 Descending Denver Center
Wed 12:10:29 PM 36.4947 -110.4442 299° West 398 458 24,400 -2,661 Descending Denver Center
Wed 12:11:31 PM 36.5517 -110.5778 298° West 369 425 21,300 -2,903 Descending Denver Center
Wed 12:12:33 PM 36.6003 -110.6872 299° West 363 418 18,400 -2,806 Descending Denver Center
Wed 12:13:35 PM 36.6447 -110.7919 298° West 346 398 15,500 -2,855 Descending Denver Center
Wed 12:14:37 PM 36.6911 -110.8956 299° West 343 395 12,500 -2,544 Descending Denver Center
Wed 12:15:40 PM 36.7353 -110.9956 299° West 334 384 10,200 -1,104 Descending Denver Center
Wed 12:16:42 PM 36.7781 -111.0903 299° West 324 373 10,200  Level Denver Center
Wed 12:17:44 PM 36.8275 -111.2053 298° West 318 366 10,200  Level Denver Center
Wed 12:18:46 PM 36.8628 -111.2853 299° West 288 331 10,200 -242 Level Denver Center
Wed 12:19:48 PM 36.9269 -111.3222 335° Northwest 260 299 9,700 -484 Descending Denver Center

Login

Don't have an account? Register now (free) for customized features, flight alerts, and more!